Pagina principale
METAR-TAF:

METAR-TAF

Aeroporti :

Mahshahr, Iran

latitudine: 30-33-23N, longitudine: 049-09-07E, altezza: 2 m

Osservazione

Il bollettino è stato emesso 28 minuti fa, alle 03:00 UTC
Vento 8 kt da est/sud-est
Temperature 9°C
Umidità 81%
Pressione 1018 hPa
Visibilità: 7000 m

METAR: OIAM 250300Z 11008KT 7000 NSC 09/06 Q1018

Ora: 06:58 (03:28 UTC)


TAF: mancante

Osservazioni e previsioni meteorologiche di più di 4000 aeroporti (messaggi METAR e TAF).

Le stazioni disponibili sono rappresentate dai dischi gialli e rossi sulla carta.

Puntare il mouse per vedere il nome della stazione.

Clicca sopra per visualizzare le osservazioni e previsioni meteorologiche.

Per cambiare la mappa : fare clic sui pulsanti verdi con una croce nera per ingrandire, il pulsante verde con un trattino per diminuire, o sulla freccia verde per le mappe adiacenti.


METAR-TAF: